Cerro, New Mexico
Current Conditions -  °F | °C
As of 3:15 PM on Monday 20 Oct 2014 (Local Time) from KSKX Reporting Station
Scattered Clouds Scattered Clouds  
Wind Chill: 70°   Ceiling: Unl
Heat Index: 70°   Visibility: 10mi
Dew Point: 30°   Wind: 6mph
Humidity: 23%   Direction: 130°SE
Pressure: 30.2"   Gusts: NA
Location:  36.75°N, 105.61°W
Report Text: KSKX 202115Z AUTO 13005KT 10SM SCT120 21/M01 A3020 RMK AO1
Loading
Personal Weather Stations






























Interactive Weather Map
Tropical Storm Tracking
New forecast layout! Learn more

10-Day Weather Forecast

Advertisements
Track Severe Weather on mobile